Time;durP1;ratioP1;P1;durP2;ratioP2;P2;SDS_P1;SDS_P2;PMS_P1;PMS_P2;Temp;Humidity;BMP_temperature;BMP_pressure;BME280_temperature;BME280_humidity;BME280_pressure;Samples;Min_cycle;Max_cycle;Signal;HPM_P1;HPM_P2
2022/06/15 00:01:12;;;;;;;;;;;;;;;18.41;100.00;100201.53;5093365;28;20370;-68
2022/06/15 00:03:37;;;;;;;;;;;;;;;18.34;100.00;100207.13;5092712;28;20006;-74
2022/06/15 00:06:07;;;;;;;;;;;;;;;18.62;100.00;100204.69;5092841;28;20431;-68
2022/06/15 00:08:32;;;;;;;;;;;;;;;18.50;100.00;100200.22;5074888;28;20366;-68
2022/06/15 00:11:02;;;;;;;;;;;;;;;18.59;100.00;100195.38;5092767;28;19916;-68
2022/06/15 00:13:29;;;;;;;;;;;;;;;18.89;100.00;100214.22;5074362;28;19916;-68
2022/06/15 00:15:54;;;;;;;;;;;;;;;19.10;100.00;100225.00;5092790;28;19912;-69
2022/06/15 00:18:20;;;;;;;;;;;;;;;19.27;100.00;100231.75;5092369;28;20400;-68
2022/06/15 00:20:45;;;;;;;;;;;;;;;19.29;100.00;100246.22;5092308;28;19916;-68
2022/06/15 00:23:11;;;;;;;;;;;;;;;19.56;100.00;100249.75;5092252;28;19912;-68
2022/06/15 00:25:36;;;;;;;;;;;;;;;19.63;100.00;100255.38;5092816;28;19908;-68
2022/06/15 00:28:01;;;;;;;;;;;;;;;19.90;100.00;100261.41;5074372;28;20297;-69
2022/06/15 00:30:28;;;;;;;;;;;;;;;20.02;100.00;100267.56;5092687;28;19912;-68
2022/06/15 00:32:53;;;;;;;;;;;;;;;19.92;100.00;100276.81;5092417;28;20013;-68
2022/06/15 00:35:18;;;;;;;;;;;;;;;20.01;100.00;100266.72;5092438;28;20397;-68
2022/06/15 00:37:44;;;;;;;;;;;;;;;20.05;100.00;100273.38;5092324;28;19912;-68
2022/06/15 00:40:09;;;;;;;;;;;;;;;20.20;100.00;100277.63;5074434;28;19919;-68
2022/06/15 00:42:34;;;;;;;;;;;;;;;20.51;100.00;100281.66;5092732;28;20318;-68
2022/06/15 00:45:00;;;;;;;;;;;;;;;20.31;100.00;100280.34;5091912;28;19965;-68
2022/06/15 00:47:28;;;;;;;;;;;;;;;20.52;100.00;100275.59;5092160;28;19916;-69
2022/06/15 00:49:53;;;;;;;;;;;;;;;20.51;100.00;100279.06;5073978;28;19912;-68
2022/06/15 00:52:28;;;;;;;;;;;;;;;20.43;100.00;100271.00;5092050;28;20365;-69
2022/06/15 00:54:53;;;;;;;;;;;;;;;20.22;100.00;100273.19;5091897;28;19970;-67
2022/06/15 00:57:19;;;;;;;;;;;;;;;20.47;100.00;100278.44;5091863;28;19907;-69
2022/06/15 00:59:58;;;;;;;;;;;;;;;20.55;100.00;100267.63;5091844;28;19912;-68
2022/06/15 01:02:24;;;;;;;;;;;;;;;20.52;100.00;100275.59;5092124;28;20290;-69
2022/06/15 01:05:02;;;;;;;;;;;;;;;20.82;100.00;100277.94;5073857;28;19918;-68
2022/06/15 01:07:42;;;;;;;;;;;;;;;20.71;100.00;100291.56;5074042;28;19994;-68
2022/06/15 01:10:07;;;;;;;;;;;;;;;20.85;100.00;100283.72;5091838;28;20011;-68
2022/06/15 01:12:48;;;;;;;;;;;;;;;20.65;100.00;100287.63;5073395;28;20364;-68
2022/06/15 01:15:13;;;;;;;;;;;;;;;20.69;100.00;100278.72;5073734;28;19918;-68
2022/06/15 01:17:56;;;;;;;;;;;;;;;20.77;100.00;100283.41;5091717;28;19912;-68
2022/06/15 01:20:41;;;;;;;;;;;;;;;20.58;100.00;100282.94;5073605;28;19916;-68
2022/06/15 01:23:26;;;;;;;;;;;;;;;20.62;100.00;100287.78;5091720;28;19959;-68
2022/06/15 01:26:10;;;;;;;;;;;;;;;20.94;100.00;100285.69;5091057;28;19961;-68
2022/06/15 01:28:42;;;;;;;;;;;;;;;20.79;100.00;100291.03;5091855;28;19912;-68
2022/06/15 01:31:14;;;;;;;;;;;;;;;20.74;100.00;100289.59;5091350;28;19912;-68
2022/06/15 01:33:47;;;;;;;;;;;;;;;20.74;100.00;100287.00;5073284;28;19918;-68
2022/06/15 01:36:32;;;;;;;;;;;;;;;20.61;100.00;100298.22;5091327;28;19916;-71
2022/06/15 01:39:18;;;;;;;;;;;;;;;20.41;100.00;100294.34;5091016;28;19912;-69
2022/06/15 01:42:02;;;;;;;;;;;;;;;20.54;100.00;100290.03;5091376;28;20382;-69
2022/06/15 01:44:27;;;;;;;;;;;;;;;20.39;100.00;100296.19;5073115;28;19912;-69
2022/06/15 01:46:53;;;;;;;;;;;;;;;20.15;100.00;100289.09;5090891;28;20357;-68
2022/06/15 01:49:39;;;;;;;;;;;;;;;20.31;100.00;100298.44;5072932;28;19947;-68
2022/06/15 01:52:07;;;;;;;;;;;;;;;20.70;100.00;100295.88;5090026;28;19908;-68
2022/06/15 01:54:34;;;;;;;;;;;;;;;20.78;100.00;100297.97;5073253;28;20309;-68
2022/06/15 01:57:01;;;;;;;;;;;;;;;20.51;100.00;100290.25;5073079;28;19915;-67
2022/06/15 01:59:26;;;;;;;;;;;;;;;20.53;100.00;100290.97;5091024;28;19919;-71
2022/06/15 02:01:57;;;;;;;;;;;;;;;20.52;100.00;100299.66;5090852;28;20322;-68
2022/06/15 02:04:29;;;;;;;;;;;;;;;20.58;100.00;100291.50;5091091;28;19919;-69
2022/06/15 02:07:01;;;;;;;;;;;;;;;20.47;100.00;100296.53;5072899;28;19916;-68
2022/06/15 02:09:26;;;;;;;;;;;;;;;20.45;100.00;100287.22;5072741;28;19978;-68
2022/06/15 02:11:53;;;;;;;;;;;;;;;20.31;100.00;100290.69;5091117;28;20349;-68
2022/06/15 02:14:39;;;;;;;;;;;;;;;20.38;100.00;100283.38;5090946;28;19919;-69
2022/06/15 02:17:07;;;;;;;;;;;;;;;20.13;100.00;100281.47;5071751;28;19965;-68
2022/06/15 02:19:35;;;;;;;;;;;;;;;20.05;100.00;100295.75;5090969;28;19911;-68
2022/06/15 02:22:04;;;;;;;;;;;;;;;19.93;100.00;100293.97;5091079;28;19912;-68
2022/06/15 02:24:30;;;;;;;;;;;;;;;19.88;100.00;100299.41;5090405;28;19919;-68
2022/06/15 02:26:56;;;;;;;;;;;;;;;19.95;100.00;100305.81;5090896;28;19921;-67
2022/06/15 02:29:24;;;;;;;;;;;;;;;19.75;100.00;100309.63;5072231;28;20007;-68
2022/06/15 02:31:49;;;;;;;;;;;;;;;19.99;100.00;100309.88;5090440;28;20015;-68
2022/06/15 02:34:15;;;;;;;;;;;;;;;19.98;100.00;100312.56;5085906;28;20006;-69
2022/06/15 02:36:40;;;;;;;;;;;;;;;19.90;100.00;100315.63;5091236;28;19962;-67
2022/06/15 02:39:07;;;;;;;;;;;;;;;19.76;100.00;100324.19;5076287;28;20485;-68
2022/06/15 02:41:33;;;;;;;;;;;;;;;20.08;100.00;100324.81;5076592;28;19959;-68
2022/06/15 02:43:59;;;;;;;;;;;;;;;20.02;100.00;100329.53;5094807;28;20287;-68
2022/06/15 02:46:26;;;;;;;;;;;;;;;20.02;100.00;100314.88;5094481;28;19950;-68
2022/06/15 02:48:52;;;;;;;;;;;;;;;20.01;100.00;100330.44;5076425;28;19961;-69
2022/06/15 02:51:23;;;;;;;;;;;;;;;19.80;100.00;100336.00;5092369;28;19912;-68
2022/06/15 02:53:50;;;;;;;;;;;;;;;19.71;100.00;100336.53;5083040;28;19919;-69
2022/06/15 02:56:17;;;;;;;;;;;;;;;20.24;100.00;100335.06;5094450;28;19961;-68
2022/06/15 02:58:44;;;;;;;;;;;;;;;20.58;100.00;100335.44;5093904;28;20417;-71
2022/06/15 03:01:10;;;;;;;;;;;;;;;20.68;100.00;100338.25;5075930;28;20390;-68
2022/06/15 03:03:36;;;;;;;;;;;;;;;20.84;100.00;100340.72;5094262;28;19912;-68
2022/06/15 03:06:01;;;;;;;;;;;;;;;20.78;100.00;100335.94;5070588;28;19981;-68
2022/06/15 03:08:26;;;;;;;;;;;;;;;20.71;100.00;100353.56;5094288;28;19912;-68
2022/06/15 03:10:52;;;;;;;;;;;;;;;20.65;100.00;100349.63;5093712;28;20382;-70
2022/06/15 03:13:18;;;;;;;;;;;;;;;20.63;100.00;100348.06;5074096;28;19912;-71
2022/06/15 03:15:44;;;;;;;;;;;;;;;20.61;100.00;100352.50;5073539;28;20279;-70
2022/06/15 03:18:09;;;;;;;;;;;;;;;20.54;100.00;100341.72;5073413;28;19919;-70
2022/06/15 03:20:34;;;;;;;;;;;;;;;20.77;100.00;100348.03;5073437;28;20011;-69
2022/06/15 03:23:00;;;;;;;;;;;;;;;20.69;100.00;100351.09;5089562;28;19941;-72
2022/06/15 03:25:25;;;;;;;;;;;;;;;20.62;100.00;100354.16;5075697;28;20388;-69
2022/06/15 03:27:50;;;;;;;;;;;;;;;20.48;100.00;100351.63;5089164;28;20378;-70
2022/06/15 03:30:16;;;;;;;;;;;;;;;20.46;100.00;100353.47;5075327;28;19912;-69
2022/06/15 03:32:42;;;;;;;;;;;;;;;20.38;100.00;100359.09;5073104;28;19925;-68
2022/06/15 03:35:07;;;;;;;;;;;;;;;20.39;100.00;100355.59;5063061;28;19997;-69
2022/06/15 03:37:33;;;;;;;;;;;;;;;20.37;100.00;100352.28;5093315;28;20362;-71
2022/06/15 03:39:58;;;;;;;;;;;;;;;20.13;100.00;100358.94;5093512;28;19934;-70
2022/06/15 03:42:24;;;;;;;;;;;;;;;20.31;100.00;100363.00;5093551;28;19919;-69
2022/06/15 03:44:50;;;;;;;;;;;;;;;20.12;100.00;100362.44;5093472;28;19984;-70
2022/06/15 03:47:20;;;;;;;;;;;;;;;20.45;100.00;100362.97;5074783;28;19916;-72
2022/06/15 03:49:48;;;;;;;;;;;;;;;20.52;100.00;100360.84;5093780;28;20390;-72
2022/06/15 03:52:13;;;;;;;;;;;;;;;20.29;100.00;100362.25;5093769;28;19943;-72
2022/06/15 03:54:38;;;;;;;;;;;;;;;20.43;100.00;100362.25;5093381;28;19912;-73
2022/06/15 03:57:04;;;;;;;;;;;;;;;20.50;100.00;100362.69;5093332;28;20408;-73
2022/06/15 03:59:30;;;;;;;;;;;;;;;20.54;100.00;100362.38;5076080;28;19911;-73
2022/06/15 04:01:55;;;;;;;;;;;;;;;20.65;100.00;100372.91;5075467;28;19939;-73
2022/06/15 04:04:20;;;;;;;;;;;;;;;20.38;100.00;100366.84;5093535;28;20366;-72
2022/06/15 04:06:46;;;;;;;;;;;;;;;20.47;100.00;100365.44;5075303;28;19919;-72
2022/06/15 04:09:11;;;;;;;;;;;;;;;20.08;100.00;100371.31;5075636;28;19912;-73
2022/06/15 04:14:21;;;;;;;;;;;;;;;19.93;100.00;100373.97;5093340;28;19918;-72
2022/06/15 04:16:53;;;;;;;;;;;;;;;19.98;100.00;100370.19;5075472;28;19912;-73
2022/06/15 04:19:18;;;;;;;;;;;;;;;20.40;100.00;100365.00;5092791;28;20441;-73
2022/06/15 04:21:43;;;;;;;;;;;;;;;20.45;100.00;100377.63;5075410;28;19966;-73
2022/06/15 04:24:11;;;;;;;;;;;;;;;20.53;100.00;100381.41;5074812;28;19947;-73
2022/06/15 04:26:37;;;;;;;;;;;;;;;20.59;100.00;100372.44;5075008;28;19943;-72
2022/06/15 04:29:02;;;;;;;;;;;;;;;20.55;100.00;100379.56;5093400;28;19916;-72
2022/06/15 04:31:28;;;;;;;;;;;;;;;21.28;100.00;100382.63;5074685;28;19919;-73
2022/06/15 04:33:53;;;;;;;;;;;;;;;21.50;100.00;100394.06;5092819;28;19934;-72
2022/06/15 04:36:18;;;;;;;;;;;;;;;21.33;100.00;100381.38;5067418;28;19958;-72
2022/06/15 04:38:44;;;;;;;;;;;;;;;21.53;100.00;100388.66;5092272;28;19912;-73
2022/06/15 04:41:09;;;;;;;;;;;;;;;21.72;100.00;100390.88;5092866;28;19920;-72
2022/06/15 04:43:34;;;;;;;;;;;;;;;21.80;100.00;100390.34;5083600;28;19916;-69
2022/06/15 04:46:00;;;;;;;;;;;;;;;21.77;100.00;100393.16;5074822;28;20456;-70
2022/06/15 04:48:25;;;;;;;;;;;;;;;21.97;100.00;100383.13;5092036;28;19916;-73
2022/06/15 04:50:51;;;;;;;;;;;;;;;21.60;100.00;100389.09;5091602;28;20016;-71
2022/06/15 04:53:17;;;;;;;;;;;;;;;21.61;100.00;100389.94;5090244;28;19971;-68
2022/06/15 04:55:43;;;;;;;;;;;;;;;21.85;100.00;100401.28;5092162;28;19912;-69
2022/06/15 04:58:08;;;;;;;;;;;;;;;22.02;100.00;100394.00;5074267;28;19916;-69
2022/06/15 05:00:36;;;;;;;;;;;;;;;21.98;100.00;100408.09;5072768;28;19965;-69
2022/06/15 05:03:02;;;;;;;;;;;;;;;22.07;100.00;100407.47;5091731;28;19912;-70
2022/06/15 05:05:27;;;;;;;;;;;;;;;22.09;100.00;100407.34;5091622;28;19912;-71
2022/06/15 05:07:53;;;;;;;;;;;;;;;22.35;100.00;100399.44;5091223;28;20383;-70
2022/06/15 05:10:19;;;;;;;;;;;;;;;22.34;100.00;100404.75;5091422;28;20348;-69
2022/06/15 05:12:45;;;;;;;;;;;;;;;22.49;100.00;100414.03;5092017;28;19919;-69
2022/06/15 05:15:13;;;;;;;;;;;;;;;22.39;100.00;100402.63;5091882;28;20002;-69
2022/06/15 05:17:38;;;;;;;;;;;;;;;22.52;100.00;100405.22;5091898;28;19912;-69
2022/06/15 05:20:04;;;;;;;;;;;;;;;22.85;100.00;100410.63;5073381;28;19961;-69
2022/06/15 05:22:29;;;;;;;;;;;;;;;22.78;100.00;100405.03;5091294;28;20064;-71
2022/06/15 05:24:55;;;;;;;;;;;;;;;22.66;100.00;100411.09;5073451;28;19916;-70
2022/06/15 05:27:20;;;;;;;;;;;;;;;23.10;100.00;100413.09;5091570;28;19919;-69
2022/06/15 05:29:45;;;;;;;;;;;;;;;22.99;100.00;100419.06;5091459;28;19919;-69
2022/06/15 05:32:10;;;;;;;;;;;;;;;22.99;100.00;100426.03;5091179;28;19935;-69
2022/06/15 05:34:36;;;;;;;;;;;;;;;23.19;100.00;100428.00;5091528;28;19912;-69
2022/06/15 05:37:01;;;;;;;;;;;;;;;23.34;100.00;100431.25;5091534;28;20278;-70
2022/06/15 05:39:27;;;;;;;;;;;;;;;23.00;100.00;100428.50;5091263;28;19916;-70
2022/06/15 05:41:52;;;;;;;;;;;;;;;23.51;100.00;100433.47;5091319;28;19916;-69
2022/06/15 05:46:54;;;;;;;;;;;;;;;23.09;100.00;100437.41;5091554;28;19920;-69
2022/06/15 05:49:19;;;;;;;;;;;;;;;22.88;100.00;100441.50;5091102;28;19946;-70
2022/06/15 05:51:44;;;;;;;;;;;;;;;23.33;100.00;100443.44;5072925;28;19907;-69
2022/06/15 05:54:11;;;;;;;;;;;;;;;23.23;100.00;100447.63;5073151;28;19912;-71
2022/06/15 05:56:36;;;;;;;;;;;;;;;23.74;100.00;100448.16;5091258;28;19912;-69
2022/06/15 05:59:02;;;;;;;;;;;;;;;23.42;100.00;100449.72;5091623;28;20437;-70
2022/06/15 06:01:32;;;;;;;;;;;;;;;23.82;100.00;100449.25;5091340;28;19969;-69
2022/06/15 06:03:57;;;;;;;;;;;;;;;23.52;100.00;100455.88;5072918;28;19951;-69
2022/06/15 06:06:23;;;;;;;;;;;;;;;23.50;100.00;100456.00;5091127;28;20015;-70
2022/06/15 06:08:49;;;;;;;;;;;;;;;23.62;100.00;100457.69;5072665;28;19927;-69
2022/06/15 06:11:14;;;;;;;;;;;;;;;23.79;100.00;100462.44;5074474;28;19919;-70
2022/06/15 06:13:40;;;;;;;;;;;;;;;23.48;100.00;100465.66;5095512;28;19918;-69
2022/06/15 06:16:06;;;;;;;;;;;;;;;23.34;100.00;100465.84;5095566;28;20298;-69
2022/06/15 06:18:31;;;;;;;;;;;;;;;23.44;100.00;100468.59;5095231;28;19934;-68
2022/06/15 06:20:57;;;;;;;;;;;;;;;23.92;100.00;100465.78;5093492;28;20305;-69
2022/06/15 06:23:22;;;;;;;;;;;;;;;23.96;100.00;100469.81;5076904;28;19916;-70
2022/06/15 06:25:50;;;;;;;;;;;;;;;23.73;100.00;100469.88;5095365;28;19962;-68
2022/06/15 06:28:30;;;;;;;;;;;;;;;24.29;100.00;100471.66;5077035;28;20290;-69
2022/06/15 06:30:57;;;;;;;;;;;;;;;25.02;99.87;100471.13;5094872;28;19977;-68
2022/06/15 06:33:23;;;;;;;;;;;;;;;25.20;96.21;100472.25;5094569;28;20120;-70
2022/06/15 06:35:49;;;;;;;;;;;;;;;25.09;100.00;100472.28;5094717;28;19954;-69
2022/06/15 06:38:14;;;;;;;;;;;;;;;25.47;97.60;100475.25;5094813;28;19912;-69
2022/06/15 06:40:40;;;;;;;;;;;;;;;25.15;99.42;100482.22;5076572;28;20314;-69
2022/06/15 06:43:05;;;;;;;;;;;;;;;25.15;100.00;100477.84;5094469;28;19916;-69
2022/06/15 06:45:30;;;;;;;;;;;;;;;24.90;100.00;100486.75;5076876;28;19993;-69
2022/06/15 06:47:56;;;;;;;;;;;;;;;25.08;96.88;100476.66;5076038;28;19916;-70
2022/06/15 06:50:22;;;;;;;;;;;;;;;25.87;100.00;100484.03;5094434;28;19923;-69
2022/06/15 06:52:48;;;;;;;;;;;;;;;24.85;100.00;100482.88;5076012;28;19912;-69
2022/06/15 06:55:13;;;;;;;;;;;;;;;24.80;100.00;100480.63;5094517;28;19916;-69
2022/06/15 06:57:38;;;;;;;;;;;;;;;25.90;100.00;100477.75;5076239;28;19915;-69
2022/06/15 07:00:04;;;;;;;;;;;;;;;25.74;100.00;100478.19;5074862;28;19919;-69
2022/06/15 07:02:29;;;;;;;;;;;;;;;25.14;100.00;100481.38;5074285;28;19919;-69
2022/06/15 07:04:55;;;;;;;;;;;;;;;25.26;100.00;100479.56;5073045;28;19969;-71
2022/06/15 07:07:20;;;;;;;;;;;;;;;24.99;100.00;100480.00;5073878;28;19983;-69
2022/06/15 07:09:45;;;;;;;;;;;;;;;25.58;100.00;100477.81;5073972;28;19920;-69
2022/06/15 07:12:11;;;;;;;;;;;;;;;25.50;100.00;100478.44;5074247;28;19912;-69
2022/06/15 07:14:36;;;;;;;;;;;;;;;25.62;100.00;100480.03;5072629;28;20023;-72
2022/06/15 07:17:01;;;;;;;;;;;;;;;25.60;100.00;100486.31;5073947;28;19913;-69
2022/06/15 07:19:27;;;;;;;;;;;;;;;25.27;100.00;100487.25;5055629;28;19952;-69
2022/06/15 07:21:52;;;;;;;;;;;;;;;26.47;97.64;100494.53;5055339;28;19923;-68
2022/06/15 07:24:17;;;;;;;;;;;;;;;26.14;94.17;100496.56;5072766;28;19924;-68
2022/06/15 07:26:45;;;;;;;;;;;;;;;25.72;96.70;100491.34;5056154;28;20329;-69
2022/06/15 07:29:11;;;;;;;;;;;;;;;26.49;95.52;100483.97;5055339;28;19912;-69
2022/06/15 07:31:39;;;;;;;;;;;;;;;25.80;94.94;100485.50;5073443;28;19947;-69
2022/06/15 07:34:05;;;;;;;;;;;;;;;26.85;94.94;100488.66;5055673;28;19919;-69
2022/06/15 07:36:31;;;;;;;;;;;;;;;25.99;91.95;100495.22;5055330;28;19919;-69
2022/06/15 07:38:57;;;;;;;;;;;;;;;26.63;91.15;100489.66;5055630;28;19912;-69
2022/06/15 07:41:23;;;;;;;;;;;;;;;26.80;86.57;100490.81;5073683;28;20050;-69
2022/06/15 07:43:48;;;;;;;;;;;;;;;26.68;85.19;100491.03;5073251;28;19977;-69
2022/06/15 07:46:14;;;;;;;;;;;;;;;26.18;88.05;100492.75;5072993;28;20302;-69
2022/06/15 07:51:26;;;;;;;;;;;;;;;25.97;93.80;100491.94;5073404;28;19961;-70
2022/06/15 07:53:51;;;;;;;;;;;;;;;25.19;94.97;100492.25;5055066;28;19912;-68
2022/06/15 07:56:17;;;;;;;;;;;;;;;26.45;92.32;100491.25;5073051;28;19920;-68
2022/06/15 07:58:43;;;;;;;;;;;;;;;26.66;98.23;100498.19;5072827;28;19916;-72
2022/06/15 08:01:08;;;;;;;;;;;;;;;26.20;93.76;100491.69;5072864;28;19951;-69
2022/06/15 08:03:34;;;;;;;;;;;;;;;27.33;83.11;100479.13;5073267;28;19935;-69
2022/06/15 08:05:59;;;;;;;;;;;;;;;26.52;83.52;100489.75;5071820;28;20384;-68
2022/06/15 08:08:25;;;;;;;;;;;;;;;26.91;84.47;100476.84;5054871;28;19919;-68
2022/06/15 08:10:50;;;;;;;;;;;;;;;27.72;82.63;100482.53;5072958;28;19912;-69
2022/06/15 08:13:16;;;;;;;;;;;;;;;27.62;86.27;100483.50;5072390;28;20381;-69
2022/06/15 08:15:42;;;;;;;;;;;;;;;27.65;87.79;100478.00;5072528;28;19913;-70
2022/06/15 08:18:10;;;;;;;;;;;;;;;27.18;84.73;100477.00;5072825;28;19912;-68
2022/06/15 08:20:37;;;;;;;;;;;;;;;27.48;86.84;100476.91;5072957;28;19916;-70
2022/06/15 08:23:05;;;;;;;;;;;;;;;27.70;79.96;100481.00;5054801;28;20002;-69
2022/06/15 08:25:36;;;;;;;;;;;;;;;27.76;80.63;100477.84;5054579;28;19915;-69
2022/06/15 08:28:03;;;;;;;;;;;;;;;27.92;78.99;100475.47;5072106;28;19970;-73
2022/06/15 08:30:28;;;;;;;;;;;;;;;27.42;89.63;100467.00;5072526;28;19912;-69
2022/06/15 08:32:53;;;;;;;;;;;;;;;28.07;79.06;100480.13;5072309;28;19912;-69
2022/06/15 08:35:19;;;;;;;;;;;;;;;27.69;83.20;100476.75;5054437;28;19912;-68
2022/06/15 08:37:44;;;;;;;;;;;;;;;28.65;76.42;100482.56;5072263;28;19979;-68
2022/06/15 08:40:10;;;;;;;;;;;;;;;28.27;79.01;100481.72;5072294;28;19919;-68
2022/06/15 08:42:54;;;;;;;;;;;;;;;27.79;84.05;100485.41;5072142;28;19913;-69
2022/06/15 08:45:32;;;;;;;;;;;;;;;27.48;84.86;100484.75;5072296;28;19919;-68
2022/06/15 08:48:06;;;;;;;;;;;;;;;27.93;85.42;100482.38;5071468;28;19916;-70
2022/06/15 08:50:43;;;;;;;;;;;;;;;27.97;83.98;100486.38;5054214;28;19966;-69
2022/06/15 08:53:28;;;;;;;;;;;;;;;27.50;85.88;100482.00;5071647;28;20432;-71
2022/06/15 08:55:59;;;;;;;;;;;;;;;28.37;83.00;100483.47;5071277;28;20374;-69
2022/06/15 08:58:24;;;;;;;;;;;;;;;28.29;83.63;100479.78;5071992;28;19915;-71
2022/06/15 09:00:52;;;;;;;;;;;;;;;28.90;84.58;100490.53;5071726;28;19912;-70
2022/06/15 09:03:22;;;;;;;;;;;;;;;28.35;85.40;100480.16;5053929;28;19912;-70
2022/06/15 09:05:59;;;;;;;;;;;;;;;28.17;83.95;100480.94;5053915;28;19912;-70
2022/06/15 09:08:27;;;;;;;;;;;;;;;28.69;77.55;100484.75;5071628;28;19912;-70
2022/06/15 09:10:58;;;;;;;;;;;;;;;28.86;78.15;100486.56;5071266;28;19994;-70
2022/06/15 09:13:42;;;;;;;;;;;;;;;28.13;79.94;100483.97;5071744;28;19956;-70
2022/06/15 09:16:07;;;;;;;;;;;;;;;27.72;80.29;100489.53;5053277;28;20005;-70
2022/06/15 09:18:39;;;;;;;;;;;;;;;28.59;81.31;100483.97;5053837;28;19916;-69
2022/06/15 09:21:04;;;;;;;;;;;;;;;29.00;76.61;100488.69;5071581;28;19948;-69
2022/06/15 09:23:48;;;;;;;;;;;;;;;28.97;73.25;100486.38;5071111;28;20361;-69
2022/06/15 09:26:34;;;;;;;;;;;;;;;29.17;77.04;100481.84;5053738;28;19917;-69
2022/06/15 09:28:59;;;;;;;;;;;;;;;29.24;72.56;100482.09;5070713;28;19912;-70
2022/06/15 09:31:27;;;;;;;;;;;;;;;28.18;77.55;100482.59;5071245;28;19919;-69
2022/06/15 09:33:55;;;;;;;;;;;;;;;26.71;83.21;100486.41;5071325;28;19959;-69
2022/06/15 09:36:23;;;;;;;;;;;;;;;27.25;84.29;100476.34;5071355;28;19944;-70
2022/06/15 09:38:49;;;;;;;;;;;;;;;28.57;80.32;100480.66;5071055;28;20440;-70
2022/06/15 09:41:23;;;;;;;;;;;;;;;27.80;78.66;100476.59;5071200;28;19912;-71
2022/06/15 09:43:55;;;;;;;;;;;;;;;29.02;81.70;100481.50;5053017;28;20387;-70
2022/06/15 09:46:39;;;;;;;;;;;;;;;27.94;85.05;100482.22;5070673;28;19916;-70
2022/06/15 09:49:04;;;;;;;;;;;;;;;29.50;80.81;100483.78;5052900;28;19952;-69
2022/06/15 09:51:37;;;;;;;;;;;;;;;29.49;71.87;100476.06;5052813;28;20001;-70
2022/06/15 09:54:16;;;;;;;;;;;;;;;28.88;72.66;100470.72;5053217;28;19916;-69
2022/06/15 09:56:41;;;;;;;;;;;;;;;28.25;79.62;100473.19;5053463;28;20355;-69
2022/06/15 09:59:08;;;;;;;;;;;;;;;29.61;73.90;100470.44;5052776;28;19916;-70
2022/06/15 10:01:35;;;;;;;;;;;;;;;29.23;77.51;100464.69;5071334;28;19962;-70
2022/06/15 10:04:02;;;;;;;;;;;;;;;28.42;84.10;100463.78;5070968;28;19908;-71
2022/06/15 10:06:42;;;;;;;;;;;;;;;28.41;85.72;100472.56;5052851;28;19920;-69
2022/06/15 10:09:09;;;;;;;;;;;;;;;28.07;83.31;100458.38;5071095;28;19947;-68
2022/06/15 10:11:43;;;;;;;;;;;;;;;28.16;82.45;100461.00;5053097;28;20313;-69
2022/06/15 10:14:24;;;;;;;;;;;;;;;29.17;75.86;100452.19;5052604;28;20356;-68
2022/06/15 10:17:01;;;;;;;;;;;;;;;28.87;80.12;100458.59;5052315;28;19912;-72
2022/06/15 10:19:27;;;;;;;;;;;;;;;29.28;79.35;100454.59;5071119;28;19962;-69
2022/06/15 10:21:54;;;;;;;;;;;;;;;29.63;75.44;100454.56;5053149;28;20004;-70
2022/06/15 10:24:23;;;;;;;;;;;;;;;29.49;79.46;100450.69;5070569;28;19916;-73
2022/06/15 10:26:51;;;;;;;;;;;;;;;28.55;79.85;100461.66;5071108;28;20011;-69
2022/06/15 10:29:20;;;;;;;;;;;;;;;28.61;83.73;100452.41;5070999;28;19918;-70
2022/06/15 10:32:05;;;;;;;;;;;;;;;28.82;86.96;100451.16;5070578;28;20003;-69
2022/06/15 10:34:35;;;;;;;;;;;;;;;28.40;78.45;100450.00;5052647;28;19918;-70
2022/06/15 10:37:05;;;;;;;;;;;;;;;27.75;86.82;100447.44;5070795;28;19928;-70
2022/06/15 10:39:33;;;;;;;;;;;;;;;27.68;89.37;100451.56;5070429;28;19912;-70
2022/06/15 10:42:00;;;;;;;;;;;;;;;28.45;86.22;100442.53;5052581;28;19920;-70
2022/06/15 10:44:34;;;;;;;;;;;;;;;28.47;87.43;100445.00;5070824;28;19913;-69
2022/06/15 10:47:02;;;;;;;;;;;;;;;27.85;86.84;100446.44;5052357;28;19949;-70
2022/06/15 10:49:30;;;;;;;;;;;;;;;28.72;85.00;100444.34;5070723;28;19971;-70
2022/06/15 10:51:55;;;;;;;;;;;;;;;28.57;87.09;100451.88;5070447;28;20374;-70
2022/06/15 10:54:29;;;;;;;;;;;;;;;29.39;77.07;100438.63;5070504;28;19919;-69
2022/06/15 11:03:01;;;;;;;;;;;;;;;29.52;78.09;100444.28;5074217;28;19974;-70
2022/06/15 11:05:28;;;;;;;;;;;;;;;29.40;73.60;100435.84;5056353;28;20022;-70
2022/06/15 11:08:03;;;;;;;;;;;;;;;29.12;82.79;100432.47;5074101;28;19923;-72
2022/06/15 11:10:28;;;;;;;;;;;;;;;28.33;83.21;100441.06;5056231;28;19920;-70
2022/06/15 11:12:56;;;;;;;;;;;;;;;28.70;81.41;100441.88;5073766;28;19923;-74
2022/06/15 11:15:24;;;;;;;;;;;;;;;28.00;84.74;100439.84;5056108;28;19923;-70
2022/06/15 11:18:03;;;;;;;;;;;;;;;29.21;80.38;100427.34;5055866;28;20011;-70
2022/06/15 11:20:28;;;;;;;;;;;;;;;29.55;84.03;100431.72;5073918;28;19919;-70
2022/06/15 11:22:59;;;;;;;;;;;;;;;30.02;86.63;100432.19;5074156;28;19913;-69
2022/06/15 11:25:29;;;;;;;;;;;;;;;29.60;84.70;100436.47;5055683;28;19912;-70
2022/06/15 11:28:00;;;;;;;;;;;;;;;28.15;91.66;100434.94;5073992;28;19913;-74
2022/06/15 11:30:31;;;;;;;;;;;;;;;28.49;89.60;100435.22;5055510;28;19939;-70
2022/06/15 11:33:01;;;;;;;;;;;;;;;27.86;95.91;100434.19;5073771;28;19912;-70
2022/06/15 11:35:36;;;;;;;;;;;;;;;27.40;97.08;100438.41;5073458;28;19912;-70
2022/06/15 11:38:20;;;;;;;;;;;;;;;28.64;86.64;100439.88;5073119;28;20386;-69
2022/06/15 11:40:52;;;;;;;;;;;;;;;28.41;87.88;100435.94;5073226;28;20441;-70
2022/06/15 11:43:23;;;;;;;;;;;;;;;29.24;83.42;100432.28;5073458;28;19912;-68
2022/06/15 11:45:54;;;;;;;;;;;;;;;29.64;78.11;100435.19;5073498;28;19913;-69
2022/06/15 11:48:38;;;;;;;;;;;;;;;30.27;81.59;100433.13;5054888;28;19922;-70
2022/06/15 11:51:03;;;;;;;;;;;;;;;29.09;76.40;100427.53;5055353;28;19927;-69
2022/06/15 11:53:28;;;;;;;;;;;;;;;28.67;94.30;100426.47;5054974;28;19913;-70
2022/06/15 11:56:13;;;;;;;;;;;;;;;28.90;76.97;100422.44;5055263;28;19919;-70
2022/06/15 11:58:50;;;;;;;;;;;;;;;28.20;86.18;100417.06;5072791;28;19957;-71
2022/06/15 12:01:34;;;;;;;;;;;;;;;29.08;91.82;100423.25;5055446;28;19949;-70
2022/06/15 12:04:15;;;;;;;;;;;;;;;28.58;89.53;100432.59;5055066;28;19974;-70
2022/06/15 12:07:02;;;;;;;;;;;;;;;28.54;90.41;100415.50;5055097;28;19918;-70
2022/06/15 12:09:37;;;;;;;;;;;;;;;28.28;93.75;100425.00;5005403;28;19920;-71
2022/06/15 12:15:19;;;;;;;;;;;;;;;28.88;92.46;100419.16;5073001;28;20011;-69
2022/06/15 12:17:45;;;;;;;;;;;;;;;28.67;91.43;100418.59;5033834;28;19991;-69
2022/06/15 12:20:18;;;;;;;;;;;;;;;28.65;91.78;100410.09;5055004;28;19947;-70
2022/06/15 12:22:49;;;;;;;;;;;;;;;28.82;90.45;100418.94;5072943;28;19916;-69
2022/06/15 12:25:26;;;;;;;;;;;;;;;29.57;84.23;100421.06;5054535;28;19917;-70
2022/06/15 12:28:21;;;;;;;;;;;;;;;28.70;90.57;100420.13;5054252;28;20000;-69
2022/06/15 12:31:01;;;;;;;;;;;;;;;28.74;87.01;100414.41;5050156;28;20010;-69
2022/06/15 12:33:31;;;;;;;;;;;;;;;29.29;90.80;100409.91;5054880;28;19913;-70
2022/06/15 12:36:10;;;;;;;;;;;;;;;28.39;93.54;100406.47;5072471;28;19912;-69
2022/06/15 12:38:45;;;;;;;;;;;;;;;28.38;94.76;100407.47;5054253;28;19958;-69
2022/06/15 12:43:55;;;;;;;;;;;;;;;28.54;100.00;100412.06;5072468;28;19927;-69
2022/06/15 12:46:21;;;;;;;;;;;;;;;28.24;100.00;100411.41;5054064;28;20003;-70
2022/06/15 12:49:06;;;;;;;;;;;;;;;27.90;99.22;100404.19;5071645;28;20003;-69
2022/06/15 12:51:50;;;;;;;;;;;;;;;28.66;96.36;100401.25;5054043;28;19919;-72
2022/06/15 12:54:24;;;;;;;;;;;;;;;28.82;97.59;100404.03;5053727;28;19967;-69
2022/06/15 12:56:53;;;;;;;;;;;;;;;28.06;100.00;100400.03;5072580;28;19958;-70
2022/06/15 12:59:31;;;;;;;;;;;;;;;27.58;100.00;100394.09;5071424;28;19915;-70